createdAt,value
2023-04-23T00:01:55.606Z,89.02
2023-04-23T00:04:30.271Z,88.95
2023-04-23T00:07:01.991Z,89.03
2023-04-23T00:09:34.823Z,88.88
2023-04-23T00:12:09.134Z,88.79
2023-04-23T00:14:41.605Z,88.65
2023-04-23T00:17:13.209Z,88.34
2023-04-23T00:19:45.041Z,87.95
2023-04-23T00:22:22.051Z,87.87
2023-04-23T00:24:53.842Z,87.55
2023-04-23T00:27:26.572Z,87.33
2023-04-23T00:30:03.048Z,87.19
2023-04-23T00:32:40.121Z,87.12
2023-04-23T00:35:12.588Z,87.22
2023-04-23T00:37:44.540Z,87.33
2023-04-23T00:40:19.689Z,87.42
2023-04-23T00:42:55.245Z,87.69
2023-04-23T00:45:29.289Z,88.47
2023-04-23T00:48:01.555Z,89.08
2023-04-23T00:50:32.727Z,89.28
2023-04-23T00:53:04.572Z,89.89
2023-04-23T00:55:36.088Z,90.05
2023-04-23T00:58:08.363Z,90.22
2023-04-23T01:00:54.290Z,90.28
2023-04-23T01:03:30.328Z,90.00
2023-04-23T01:06:02.992Z,90.64
2023-04-23T01:08:36.662Z,90.91
2023-04-23T01:11:08.360Z,91.60
2023-04-23T01:13:42.453Z,91.78
2023-04-23T01:16:14.728Z,91.97
2023-04-23T01:18:49.946Z,91.95
2023-04-23T01:21:24.048Z,92.05
2023-04-23T01:23:56.125Z,91.84
2023-04-23T01:26:27.653Z,91.85
2023-04-23T01:29:00.261Z,91.99
2023-04-23T01:31:34.465Z,91.93
2023-04-23T01:34:07.276Z,91.91
2023-04-23T01:36:39.661Z,91.90
2023-04-23T01:39:11.311Z,91.78
2023-04-23T01:41:46.504Z,91.43
2023-04-23T01:44:21.920Z,91.09
2023-04-23T01:46:56.278Z,91.12
2023-04-23T01:49:35.599Z,91.47
2023-04-23T01:52:06.674Z,91.65
2023-04-23T01:54:39.016Z,91.38
2023-04-23T01:57:11.709Z,91.60
2023-04-23T01:59:44.898Z,91.48
2023-04-23T02:02:16.739Z,91.81
2023-04-23T02:04:50.132Z,91.73
2023-04-23T02:07:20.782Z,92.11
2023-04-23T02:09:50.862Z,92.08
2023-04-23T02:12:21.996Z,91.64
2023-04-23T02:14:54.720Z,91.08
2023-04-23T02:17:26.236Z,91.00
2023-04-23T02:19:57.196Z,91.11
2023-04-23T02:22:27.846Z,91.11
2023-04-23T02:24:59.581Z,91.35
2023-04-23T02:27:30.346Z,91.22
2023-04-23T02:30:00.181Z,91.38
2023-04-23T02:32:32.583Z,91.32
2023-04-23T02:35:04.210Z,91.65
2023-04-23T02:37:35.241Z,91.66
2023-04-23T02:40:09.336Z,91.72
2023-04-23T02:42:40.310Z,91.74
2023-04-23T02:45:13.210Z,92.09
2023-04-23T02:47:49.176Z,92.22
2023-04-23T02:50:19.149Z,92.40
2023-04-23T02:52:50.468Z,92.61
2023-04-23T02:55:21.835Z,92.54
2023-04-23T02:57:52.679Z,92.69
2023-04-23T03:00:22.757Z,92.54
2023-04-23T03:02:53.559Z,92.74
2023-04-23T03:05:25.367Z,92.92
2023-04-23T03:07:56.048Z,92.69
2023-04-23T03:10:26.152Z,92.67
2023-04-23T03:12:56.166Z,92.61
2023-04-23T03:15:28.676Z,92.39
2023-04-23T03:18:00.422Z,92.08
2023-04-23T03:20:32.802Z,92.05
2023-04-23T03:23:03.580Z,91.47
2023-04-23T03:25:34.356Z,91.24
2023-04-23T03:28:05.001Z,91.18
2023-04-23T03:30:37.186Z,91.09
2023-04-23T03:33:09.139Z,91.09
2023-04-23T03:35:42.070Z,91.30
2023-04-23T03:38:17.272Z,91.34
2023-04-23T03:40:48.085Z,91.55
2023-04-23T03:43:20.128Z,91.66
2023-04-23T03:46:14.817Z,91.51
2023-04-23T03:48:46.108Z,91.88
2023-04-23T03:51:24.436Z,92.11
2023-04-23T03:53:54.920Z,92.37
2023-04-23T03:56:47.884Z,92.91
2023-04-23T03:59:24.950Z,93.60
2023-04-23T04:01:58.626Z,93.86
2023-04-23T04:04:30.705Z,94.18
2023-04-23T04:07:02.665Z,94.40
2023-04-23T04:09:32.915Z,94.67
2023-04-23T04:12:05.316Z,95.02
2023-04-23T04:14:36.689Z,95.25
2023-04-23T04:17:08.898Z,95.61
2023-04-23T04:19:39.921Z,95.59
2023-04-23T04:22:11.337Z,95.80
2023-04-23T04:24:43.265Z,96.06
2023-04-23T04:27:13.917Z,96.22
2023-04-23T04:29:44.006Z,96.31
2023-04-23T04:32:14.842Z,96.41
2023-04-23T04:34:46.104Z,96.50
2023-04-23T04:37:17.758Z,96.57
2023-04-23T04:39:48.087Z,96.43
2023-04-23T04:42:17.900Z,96.73
2023-04-23T04:44:48.803Z,96.94
2023-04-23T04:47:20.012Z,96.94
2023-04-23T04:49:51.475Z,97.17
2023-04-23T04:52:21.179Z,97.00
2023-04-23T04:54:51.366Z,97.32
2023-04-23T04:57:24.681Z,97.22
2023-04-23T04:59:55.701Z,97.42
2023-04-23T05:02:25.788Z,97.57
2023-04-23T05:04:56.858Z,97.49
2023-04-23T05:07:26.981Z,97.50
2023-04-23T05:09:57.846Z,97.23
2023-04-23T05:12:28.480Z,97.43
2023-04-23T05:14:59.467Z,97.13
2023-04-23T05:17:29.554Z,97.37
2023-04-23T05:19:59.709Z,97.50
2023-04-23T05:22:31.591Z,97.96
2023-04-23T05:25:01.731Z,98.16
2023-04-23T05:27:31.552Z,98.02
2023-04-23T05:30:03.915Z,98.21
2023-04-23T05:32:34.926Z,98.30
2023-04-23T05:35:06.072Z,98.35
2023-04-23T05:37:36.559Z,98.55
2023-04-23T05:40:08.883Z,98.49
2023-04-23T05:42:39.880Z,98.39
2023-04-23T05:45:10.619Z,98.51
2023-04-23T05:47:40.402Z,98.72
2023-04-23T05:50:12.714Z,98.75
2023-04-23T05:52:43.834Z,98.69
2023-04-23T05:55:18.643Z,98.73
2023-04-23T05:57:49.383Z,98.81
2023-04-23T06:00:20.333Z,98.79
2023-04-23T06:02:50.850Z,98.70
2023-04-23T06:05:22.836Z,98.66
2023-04-23T06:07:53.001Z,98.68
2023-04-23T06:10:22.297Z,98.38
2023-04-23T06:12:52.766Z,98.53
2023-04-23T06:15:23.962Z,98.70
2023-04-23T06:17:55.650Z,98.81
2023-04-23T06:20:26.092Z,99.07
2023-04-23T06:22:56.373Z,98.96
2023-04-23T06:25:27.136Z,99.02
2023-04-23T06:27:59.097Z,99.10
2023-04-23T06:30:32.731Z,99.05
2023-04-23T06:33:04.797Z,99.35
2023-04-23T06:35:35.813Z,99.36
2023-04-23T06:38:05.542Z,99.09
2023-04-23T06:40:35.946Z,98.82
2023-04-23T06:43:07.654Z,98.95
2023-04-23T06:45:53.677Z,99.34
2023-04-23T06:48:24.237Z,99.30
2023-04-23T06:50:54.012Z,99.32
2023-04-23T06:53:24.729Z,99.21
2023-04-23T06:55:55.217Z,99.28
2023-04-23T06:58:32.124Z,99.42
2023-04-23T07:01:08.748Z,99.44
2023-04-23T07:03:40.497Z,99.32
2023-04-23T07:06:12.837Z,99.47
2023-04-23T07:08:43.114Z,99.68
2023-04-23T07:11:13.497Z,99.76
2023-04-23T07:13:45.043Z,99.64
2023-04-23T07:16:16.060Z,99.68
2023-04-23T07:18:46.122Z,99.74
2023-04-23T07:21:15.954Z,99.90
2023-04-23T07:23:46.295Z,99.92
2023-04-23T07:26:17.706Z,99.99
2023-04-23T07:28:51.342Z,99.80
2023-04-23T07:31:24.899Z,99.99
2023-04-23T07:33:55.012Z,99.99
2023-04-23T07:36:26.021Z,99.99
2023-04-23T07:38:56.547Z,99.99
2023-04-23T07:41:26.711Z,99.99
2023-04-23T07:44:02.581Z,99.99
2023-04-23T07:46:34.037Z,99.99
2023-04-23T07:49:04.734Z,99.99
2023-04-23T07:51:34.479Z,99.99
2023-04-23T07:54:04.761Z,99.99
2023-04-23T07:56:34.725Z,99.99
2023-04-23T07:59:08.770Z,99.99
2023-04-23T08:01:39.160Z,99.99
2023-04-23T08:04:09.289Z,99.99
2023-04-23T08:06:39.920Z,99.99
2023-04-23T08:09:10.693Z,99.99
2023-04-23T08:11:40.714Z,99.99
2023-04-23T08:14:10.771Z,99.99
2023-04-23T08:16:40.015Z,99.99
2023-04-23T08:19:11.334Z,99.99
2023-04-23T08:21:42.618Z,99.99
2023-04-23T08:24:14.446Z,99.99
2023-04-23T08:26:44.665Z,99.99
2023-04-23T08:29:14.450Z,99.99
2023-04-23T08:31:44.933Z,99.99
2023-04-23T08:34:16.590Z,99.99
2023-04-23T08:36:48.044Z,99.99
2023-04-23T08:39:18.495Z,99.99
2023-04-23T08:41:51.619Z,99.99
2023-04-23T08:44:26.626Z,99.99
2023-04-23T08:46:59.354Z,99.99
2023-04-23T08:49:34.638Z,99.99
2023-04-23T08:52:26.042Z,99.99
2023-04-23T08:55:01.648Z,99.99
2023-04-23T08:57:33.272Z,99.99
2023-04-23T09:00:07.540Z,99.99
2023-04-23T09:02:39.479Z,99.99
2023-04-23T09:05:10.792Z,99.99
2023-04-23T09:07:41.153Z,99.99
2023-04-23T09:10:16.001Z,99.99
2023-04-23T09:12:46.575Z,99.99
2023-04-23T09:15:16.797Z,99.99
2023-04-23T09:17:49.316Z,99.99
2023-04-23T09:20:19.480Z,99.99
2023-04-23T09:22:51.061Z,99.99
2023-04-23T09:25:25.030Z,99.99
2023-04-23T09:27:56.758Z,99.99
2023-04-23T09:30:28.633Z,99.99
2023-04-23T09:32:59.490Z,99.99
2023-04-23T09:35:30.533Z,99.99
2023-04-23T09:38:01.081Z,99.99
2023-04-23T09:40:31.158Z,99.99
2023-04-23T09:43:00.921Z,99.99
2023-04-23T09:45:31.045Z,99.99
2023-04-23T09:48:02.398Z,99.99
2023-04-23T09:50:42.885Z,99.99
2023-04-23T09:53:16.036Z,99.99
2023-04-23T09:55:47.028Z,99.99
2023-04-23T09:58:18.555Z,99.99
2023-04-23T10:00:50.324Z,99.99
2023-04-23T10:03:29.340Z,99.99
2023-04-23T10:06:02.494Z,99.99
2023-04-23T10:08:34.489Z,99.99
2023-04-23T10:11:19.874Z,99.99
2023-04-23T10:13:51.228Z,99.99
2023-04-23T10:16:26.816Z,99.99
2023-04-23T10:19:02.505Z,99.99
2023-04-23T10:21:46.314Z,99.99
2023-04-23T10:24:22.348Z,99.99
2023-04-23T10:26:55.336Z,99.99
2023-04-23T10:29:32.957Z,99.99
2023-04-23T10:32:09.062Z,99.99
2023-04-23T10:34:41.296Z,99.99
2023-04-23T10:37:13.650Z,99.99
2023-04-23T10:39:48.239Z,99.99
2023-04-23T10:42:19.373Z,99.99
2023-04-23T10:47:23.895Z,99.99
2023-04-23T10:49:55.451Z,99.98
2023-04-23T10:52:27.371Z,99.53
2023-04-23T10:55:01.053Z,99.48
2023-04-23T10:57:31.744Z,99.48
2023-04-23T11:00:05.693Z,99.00
2023-04-23T11:02:48.933Z,98.46
2023-04-23T11:05:19.741Z,96.80
2023-04-23T11:11:00.466Z,86.91
2023-04-23T11:13:32.899Z,85.76
2023-04-23T11:16:24.926Z,80.08
2023-04-23T11:19:05.265Z,69.33
2023-04-23T11:22:01.991Z,66.27
2023-04-23T11:24:33.656Z,60.94
2023-04-23T11:27:09.831Z,60.08
2023-04-23T11:29:44.862Z,59.51
2023-04-23T11:32:19.330Z,59.00
2023-04-23T11:34:51.667Z,57.29
2023-04-23T11:37:22.973Z,55.10
2023-04-23T11:39:53.517Z,52.00
2023-04-23T11:42:24.387Z,53.04
2023-04-23T11:44:55.009Z,51.61
2023-04-23T11:47:28.164Z,51.99
2023-04-23T11:49:58.702Z,54.56
2023-04-23T11:52:29.659Z,55.55
2023-04-23T11:55:05.472Z,55.47
2023-04-23T11:57:42.476Z,55.02
2023-04-23T12:00:25.631Z,58.86
2023-04-23T12:03:08.057Z,57.20
2023-04-23T12:05:43.535Z,56.58
2023-04-23T12:08:18.056Z,56.29
2023-04-23T12:10:53.821Z,56.49
2023-04-23T12:13:33.243Z,57.09
2023-04-23T12:16:05.722Z,55.88
2023-04-23T12:18:42.591Z,57.85
2023-04-23T12:21:18.665Z,60.11
2023-04-23T12:23:53.977Z,58.55
2023-04-23T12:26:26.254Z,56.82
2023-04-23T12:29:00.186Z,56.71
2023-04-23T12:31:32.146Z,60.61
2023-04-23T12:34:10.652Z,58.05
2023-04-23T12:36:42.342Z,56.20
2023-04-23T12:39:37.911Z,60.46
2023-04-23T12:42:11.637Z,57.90
2023-04-23T12:44:42.886Z,58.30
2023-04-23T12:47:13.510Z,57.64
2023-04-23T12:49:44.972Z,57.99
2023-04-23T12:52:16.169Z,56.47
2023-04-23T12:54:46.527Z,57.65
2023-04-23T12:57:17.843Z,58.11
2023-04-23T12:59:49.420Z,55.23
2023-04-23T13:02:20.295Z,54.86
2023-04-23T13:04:52.648Z,53.50
2023-04-23T13:07:23.220Z,50.40
2023-04-23T13:09:53.413Z,52.53
2023-04-23T13:12:24.167Z,52.41
2023-04-23T13:14:54.936Z,52.61
2023-04-23T13:17:27.302Z,51.49
2023-04-23T13:19:58.323Z,53.29
2023-04-23T13:22:33.017Z,50.96
2023-04-23T13:25:03.704Z,53.28
2023-04-23T13:27:35.198Z,51.79
2023-04-23T13:30:05.951Z,52.71
2023-04-23T13:32:36.978Z,53.43
2023-04-23T13:35:09.044Z,51.38
2023-04-23T13:37:42.344Z,52.86
2023-04-23T13:40:13.115Z,51.01
2023-04-23T13:42:43.772Z,50.12
2023-04-23T13:45:14.997Z,48.83
2023-04-23T13:47:45.643Z,48.07
2023-04-23T13:50:15.383Z,46.60
2023-04-23T13:52:47.210Z,45.72
2023-04-23T13:55:19.141Z,45.99
2023-04-23T13:57:49.661Z,46.22
2023-04-23T14:00:20.049Z,46.63
2023-04-23T14:02:51.924Z,46.00
2023-04-23T14:05:22.508Z,44.55
2023-04-23T14:07:53.468Z,45.13
2023-04-23T14:10:24.266Z,49.60
2023-04-23T14:12:55.582Z,45.42
2023-04-23T14:15:26.128Z,44.14
2023-04-23T14:17:57.382Z,48.82
2023-04-23T14:20:27.612Z,48.50
2023-04-23T14:23:03.823Z,46.42
2023-04-23T14:25:42.577Z,47.45
2023-04-23T14:28:42.586Z,53.92
2023-04-23T14:31:12.837Z,50.59
2023-04-23T14:33:43.689Z,51.39
2023-04-23T14:36:14.779Z,50.65
2023-04-23T14:38:45.272Z,47.68
2023-04-23T14:41:15.694Z,49.57
2023-04-23T14:43:45.645Z,49.44
2023-04-23T14:46:16.108Z,46.15
2023-04-23T14:48:48.306Z,47.48
2023-04-23T14:51:20.083Z,47.35
2023-04-23T14:53:50.251Z,51.45
2023-04-23T14:56:20.814Z,51.04
2023-04-23T14:58:51.706Z,49.18
2023-04-23T15:01:22.361Z,49.19
2023-04-23T15:03:54.796Z,47.92
2023-04-23T15:06:27.265Z,47.54
2023-04-23T15:08:58.204Z,46.81
2023-04-23T15:11:28.473Z,48.85
2023-04-23T15:14:22.612Z,49.43
2023-04-23T15:16:54.199Z,47.13
2023-04-23T15:19:26.025Z,46.23
2023-04-23T15:21:56.605Z,48.33
2023-04-23T15:24:26.459Z,45.86
2023-04-23T15:26:59.282Z,45.98
2023-04-23T15:29:31.146Z,45.10
2023-04-23T15:32:01.812Z,45.32
2023-04-23T15:34:32.043Z,45.37
2023-04-23T15:37:02.928Z,45.13
2023-04-23T15:39:33.961Z,43.30
2023-04-23T15:42:05.170Z,44.26
2023-04-23T15:44:36.239Z,44.53
2023-04-23T15:47:07.826Z,44.41
2023-04-23T15:49:38.852Z,44.80
2023-04-23T15:52:08.962Z,45.24
2023-04-23T15:54:38.966Z,42.47
2023-04-23T15:57:10.282Z,44.58
2023-04-23T15:59:41.043Z,45.51
2023-04-23T16:02:12.265Z,40.60
2023-04-23T16:04:43.491Z,43.02
2023-04-23T16:07:14.930Z,39.59
2023-04-23T16:09:45.677Z,42.44
2023-04-23T16:12:15.726Z,42.38
2023-04-23T16:14:45.785Z,40.98
2023-04-23T16:17:17.096Z,40.12
2023-04-23T16:19:47.948Z,39.35
2023-04-23T16:22:18.666Z,38.53
2023-04-23T16:24:48.722Z,39.42
2023-04-23T16:27:19.387Z,40.76
2023-04-23T16:29:49.666Z,40.95
2023-04-23T16:32:20.031Z,42.03
2023-04-23T16:34:50.448Z,40.43
2023-04-23T16:37:22.233Z,44.82
2023-04-23T16:39:52.847Z,38.19
2023-04-23T16:42:23.455Z,41.99
2023-04-23T16:44:53.861Z,40.13
2023-04-23T16:47:24.348Z,39.14
2023-04-23T16:49:56.441Z,38.02
2023-04-23T16:52:26.448Z,38.79
2023-04-23T16:54:56.509Z,38.43
2023-04-23T16:57:28.010Z,36.11
2023-04-23T16:59:58.867Z,40.00
2023-04-23T17:02:30.232Z,36.90
2023-04-23T17:05:01.272Z,35.92
2023-04-23T17:07:31.633Z,36.13
2023-04-23T17:10:02.238Z,36.57
2023-04-23T17:12:33.301Z,35.89
2023-04-23T17:15:03.564Z,35.40
2023-04-23T17:17:33.402Z,34.28
2023-04-23T17:20:05.028Z,35.04
2023-04-23T17:22:36.235Z,35.53
2023-04-23T17:25:08.470Z,34.54
2023-04-23T17:27:38.416Z,37.34
2023-04-23T17:30:08.957Z,37.58
2023-04-23T17:32:39.125Z,37.69
2023-04-23T17:35:10.799Z,36.07
2023-04-23T17:37:44.371Z,32.17
2023-04-23T17:40:14.726Z,33.44
2023-04-23T17:42:44.508Z,35.87
2023-04-23T17:45:15.306Z,35.98
2023-04-23T17:47:46.541Z,35.60
2023-04-23T17:50:16.920Z,37.17
2023-04-23T17:52:46.923Z,37.70
2023-04-23T17:55:18.218Z,39.84
2023-04-23T17:57:48.532Z,41.63
2023-04-23T18:00:19.844Z,45.96
2023-04-23T18:02:50.368Z,40.20
2023-04-23T18:05:22.108Z,40.95
2023-04-23T18:07:52.934Z,40.07
2023-04-23T18:10:23.888Z,39.38
2023-04-23T18:12:54.886Z,37.12
2023-04-23T18:15:26.834Z,39.67
2023-04-23T18:17:57.539Z,39.52
2023-04-23T18:20:28.190Z,42.72
2023-04-23T18:22:58.334Z,41.59
2023-04-23T18:25:28.301Z,43.76
2023-04-23T18:28:00.422Z,43.07
2023-04-23T18:30:32.020Z,45.16
2023-04-23T18:33:20.556Z,45.68
2023-04-23T18:35:50.945Z,46.38
2023-04-23T18:38:27.907Z,42.15
2023-04-23T18:41:03.809Z,44.54
2023-04-23T18:43:35.286Z,43.44
2023-04-23T18:46:05.917Z,40.89
2023-04-23T18:48:35.832Z,39.25
2023-04-23T18:51:16.383Z,38.44
2023-04-23T18:53:47.844Z,38.17
2023-04-23T18:56:17.936Z,36.83
2023-04-23T18:58:47.740Z,38.97
2023-04-23T19:01:20.374Z,40.65
2023-04-23T19:03:51.210Z,40.40
2023-04-23T19:06:22.488Z,43.12
2023-04-23T19:08:52.442Z,44.37
2023-04-23T19:11:22.585Z,48.35
2023-04-23T19:13:53.077Z,52.77
2023-04-23T19:16:23.663Z,54.94
2023-04-23T19:18:56.667Z,56.38
2023-04-23T19:21:27.278Z,56.93
2023-04-23T19:23:57.895Z,56.93
2023-04-23T19:26:28.294Z,58.79
2023-04-23T19:28:58.665Z,58.36
2023-04-23T19:31:31.242Z,58.77
2023-04-23T19:34:01.636Z,58.94
2023-04-23T19:36:32.094Z,60.08
2023-04-23T19:39:03.250Z,61.02
2023-04-23T19:41:33.167Z,60.58
2023-04-23T19:44:03.199Z,60.75
2023-04-23T19:46:33.454Z,60.98
2023-04-23T19:49:04.116Z,60.60
2023-04-23T19:51:39.084Z,62.00
2023-04-23T19:54:09.371Z,61.68
2023-04-23T19:56:39.316Z,62.35
2023-04-23T19:59:14.883Z,62.91
2023-04-23T20:01:44.694Z,60.95
2023-04-23T20:04:14.797Z,62.97
2023-04-23T20:06:45.916Z,63.72
2023-04-23T20:09:23.000Z,63.26
2023-04-23T20:11:54.631Z,64.20
2023-04-23T20:14:25.802Z,65.17
2023-04-23T20:16:56.218Z,65.02
2023-04-23T20:19:27.290Z,66.00
2023-04-23T20:21:58.390Z,66.50
2023-04-23T20:24:28.286Z,66.61
2023-04-23T20:26:59.738Z,67.37
2023-04-23T20:29:31.899Z,67.76
2023-04-23T20:32:02.964Z,68.66
2023-04-23T20:34:33.115Z,69.23
2023-04-23T20:37:03.389Z,69.87
2023-04-23T20:39:35.819Z,70.30
2023-04-23T20:42:07.610Z,70.97
2023-04-23T20:44:40.496Z,71.58
2023-04-23T20:47:11.624Z,72.32
2023-04-23T20:49:42.679Z,73.13
2023-04-23T20:52:16.074Z,73.72
2023-04-23T20:54:47.145Z,75.00
2023-04-23T20:57:17.481Z,75.26
2023-04-23T20:59:47.701Z,75.70
2023-04-23T21:02:19.463Z,76.13
2023-04-23T21:04:49.820Z,76.47
2023-04-23T21:07:20.072Z,76.93
2023-04-23T21:09:50.381Z,77.58
2023-04-23T21:12:21.611Z,77.56
2023-04-23T21:14:52.392Z,78.16
2023-04-23T21:17:22.274Z,78.53
2023-04-23T21:19:53.179Z,78.63
2023-04-23T21:22:23.934Z,78.73
2023-04-23T21:24:55.967Z,79.31
2023-04-23T21:27:26.389Z,79.69
2023-04-23T21:29:56.270Z,79.68
2023-04-23T21:32:26.996Z,80.33
2023-04-23T21:34:57.422Z,80.13
2023-04-23T21:37:27.679Z,80.42
2023-04-23T21:39:59.345Z,80.32
2023-04-23T21:42:29.441Z,80.87
2023-04-23T21:45:00.174Z,80.41
2023-04-23T21:47:31.028Z,80.61
2023-04-23T21:50:05.565Z,81.28
2023-04-23T21:52:36.664Z,81.20
2023-04-23T21:55:08.373Z,81.39
2023-04-23T21:57:41.628Z,81.45
2023-04-23T22:00:14.991Z,81.28
2023-04-23T22:02:49.230Z,81.40
2023-04-23T22:05:21.917Z,81.42
2023-04-23T22:07:55.566Z,81.59
2023-04-23T22:10:27.334Z,81.66
2023-04-23T22:12:58.124Z,81.39
2023-04-23T22:15:29.264Z,80.97
2023-04-23T22:18:02.064Z,81.29
2023-04-23T22:20:33.474Z,81.25
2023-04-23T22:23:03.996Z,81.57
2023-04-23T22:25:34.575Z,81.81
2023-04-23T22:28:04.742Z,81.30
2023-04-23T22:30:39.464Z,81.34
2023-04-23T22:33:10.120Z,81.36
2023-04-23T22:35:40.842Z,81.27
2023-04-23T22:38:11.052Z,81.17
2023-04-23T22:40:42.449Z,80.78
2023-04-23T22:43:13.844Z,81.18
2023-04-23T22:45:46.246Z,81.44
2023-04-23T22:48:17.037Z,80.96
2023-04-23T22:50:49.288Z,81.27
2023-04-23T22:53:23.369Z,80.80
2023-04-23T22:55:54.740Z,81.14
2023-04-23T22:58:25.461Z,80.86
2023-04-23T23:00:56.846Z,81.08
2023-04-23T23:03:28.769Z,81.87
2023-04-23T23:06:00.079Z,81.66
2023-04-23T23:08:31.098Z,81.26
2023-04-23T23:11:03.032Z,81.12
2023-04-23T23:13:34.399Z,81.53
2023-04-23T23:16:07.234Z,82.26
2023-04-23T23:18:40.093Z,82.18
2023-04-23T23:21:12.018Z,82.30
2023-04-23T23:23:43.494Z,82.64
2023-04-23T23:26:14.919Z,82.92
2023-04-23T23:28:45.650Z,83.24
2023-04-23T23:31:16.861Z,83.98
2023-04-23T23:33:48.722Z,84.25
2023-04-23T23:36:22.191Z,84.81
2023-04-23T23:38:53.915Z,85.31
2023-04-23T23:41:24.374Z,85.83
2023-04-23T23:43:56.113Z,86.26
2023-04-23T23:46:28.174Z,86.54
2023-04-23T23:48:58.944Z,86.38
2023-04-23T23:51:31.500Z,85.78
2023-04-23T23:54:03.137Z,84.95
2023-04-23T23:56:34.471Z,84.94
2023-04-23T23:59:08.388Z,85.24
